Time;durP1;ratioP1;P1;durP2;ratioP2;P2;SDS_P1;SDS_P2;PMS_P1;PMS_P2;Temp;Humidity;BMP_temperature;BMP_pressure;BME280_temperature;BME280_humidity;BME280_pressure;Samples;Min_cycle;Max_cycle;Signal;HPM_P1;HPM_P2
2021/08/09 00:02:42;;;;;;;9.87;3.40;;;;;;;22.98;92.23;100171.28;6228497;28;20041;-80
2021/08/09 00:05:46;;;;;;;9.60;4.00;;;;;;;22.85;100.00;100185.97;6212110;28;20470;-80
2021/08/09 00:08:46;;;;;;;15.98;4.00;;;;;;;22.46;100.00;100165.41;6228341;28;20124;-80
2021/08/09 00:11:47;;;;;;;9.33;3.50;;;;;;;22.11;100.00;100167.44;6227848;28;20045;-80
2021/08/09 00:14:48;;;;;;;11.80;3.80;;;;;;;22.06;100.00;100156.44;6211802;28;20277;-80
2021/08/09 00:17:48;;;;;;;7.63;3.27;;;;;;;21.89;100.00;100152.13;6211590;28;20121;-79
2021/08/09 00:20:49;;;;;;;11.67;3.83;;;;;;;21.91;100.00;100143.00;6245546;28;20041;-80
2021/08/09 00:23:50;;;;;;;11.73;4.40;;;;;;;21.85;100.00;100141.00;6227749;28;20678;-80
2021/08/09 00:26:51;;;;;;;6.93;3.33;;;;;;;22.02;100.00;100131.22;6227919;28;20041;-80
2021/08/09 00:29:51;;;;;;;9.57;3.20;;;;;;;22.18;100.00;100138.34;6211622;28;20116;-80
2021/08/09 00:32:52;;;;;;;11.07;4.43;;;;;;;22.31;100.00;100136.03;6227354;28;20127;-80
2021/08/09 00:35:53;;;;;;;12.00;4.43;;;;;;;22.29;100.00;100138.03;6211785;28;20123;-80
2021/08/09 00:38:53;;;;;;;9.70;4.13;;;;;;;22.33;100.00;100150.00;6230821;28;20077;-80
2021/08/09 00:41:54;;;;;;;7.83;4.07;;;;;;;22.24;100.00;100158.16;6215913;28;20051;-80
2021/08/09 00:44:55;;;;;;;10.97;4.00;;;;;;;22.31;100.00;100170.59;6232165;28;20528;-80
2021/08/09 00:47:55;;;;;;;9.43;3.97;;;;;;;22.35;100.00;100196.84;6232284;28;20045;-80
2021/08/09 00:50:56;;;;;;;7.47;3.33;;;;;;;22.28;100.00;100209.97;6199570;28;20852;-80
2021/08/09 00:53:57;;;;;;;6.50;3.50;;;;;;;22.12;100.00;100213.41;6232152;28;20518;-80
2021/08/09 00:56:58;;;;;;;9.37;3.73;;;;;;;22.06;100.00;100212.25;6215841;28;20411;-80
2021/08/09 01:00:01;;;;;;;9.40;4.00;;;;;;;22.15;100.00;100218.38;6232007;28;20421;-80
2021/08/09 01:03:02;;;;;;;11.45;3.83;;;;;;;22.18;100.00;100227.88;6249734;28;20037;-80
2021/08/09 01:06:03;;;;;;;9.73;3.83;;;;;;;22.12;100.00;100230.19;6231656;28;20063;-80
2021/08/09 01:09:21;;;;;;;8.15;3.40;;;;;;;22.02;100.00;100232.16;6232926;28;20038;-80
2021/08/09 01:12:46;;;;;;;7.07;3.30;;;;;;;22.08;100.00;100226.19;6249977;28;20056;-80
2021/08/09 01:15:52;;;;;;;10.38;3.53;;;;;;;22.05;100.00;100231.84;6249292;28;20041;-80
2021/08/09 01:19:00;;;;;;;8.68;3.55;;;;;;;22.11;100.00;100211.75;6249424;28;20132;-80
2021/08/09 01:22:34;;;;;;;9.50;3.92;;;;;;;22.14;100.00;100188.34;6248217;28;20053;-80
2021/08/09 01:26:00;;;;;;;8.23;3.55;;;;;;;22.11;100.00;100167.44;6247777;28;20046;-80
2021/08/09 01:29:06;;;;;;;8.40;3.67;;;;;;;22.08;100.00;100159.78;6244997;28;20101;-80
2021/08/09 01:32:08;;;;;;;7.60;2.83;;;;;;;22.03;100.00;100132.88;6247738;28;20049;-80
2021/08/09 01:35:10;;;;;;;7.85;3.25;;;;;;;21.91;100.00;100121.75;6231080;28;20381;-80
2021/08/09 01:38:12;;;;;;;5.30;3.58;;;;;;;21.92;100.00;100115.44;6231053;28;20041;-80
2021/08/09 01:41:14;;;;;;;8.82;3.40;;;;;;;21.83;100.00;100100.50;6247620;28;20197;-80
2021/08/09 01:44:15;;;;;;;8.07;2.95;;;;;;;21.77;100.00;100087.06;6230634;28;20052;-80
2021/08/09 01:47:16;;;;;;;5.35;2.60;;;;;;;21.69;100.00;100075.41;6248330;28;20095;-80
2021/08/09 01:50:18;;;;;;;6.00;3.22;;;;;;;21.65;100.00;100092.69;6247094;28;20049;-80
2021/08/09 01:53:19;;;;;;;5.18;2.67;;;;;;;21.57;100.00;100092.66;6246945;28;20045;-80
2021/08/09 01:56:21;;;;;;;6.07;3.03;;;;;;;21.59;100.00;100076.59;6247057;28;20041;-80
2021/08/09 01:59:22;;;;;;;8.38;3.15;;;;;;;21.48;100.00;100086.53;6230641;28;20045;-80
2021/08/09 02:02:30;;;;;;;6.68;2.88;;;;;;;21.50;100.00;100076.56;6246970;28;20051;-79
2021/08/09 02:05:31;;;;;;;4.05;2.50;;;;;;;21.60;100.00;100063.16;6246697;28;20115;-80
2021/08/09 02:08:34;;;;;;;8.00;3.10;;;;;;;21.65;100.00;100066.13;6214557;28;20452;-80
2021/08/09 02:12:01;;;;;;;6.38;2.95;;;;;;;21.57;100.00;100055.50;6247942;28;20083;-79
2021/08/09 02:15:03;;;;;;;4.78;2.88;;;;;;;21.44;100.00;100036.59;6246553;28;20052;-80
2021/08/09 02:18:28;;;;;;;5.43;3.10;;;;;;;21.35;100.00;99998.53;6230391;28;20041;-80
2021/08/09 02:21:32;;;;;;;4.70;2.80;;;;;;;21.42;100.00;100014.66;6246100;28;20061;-79
2021/08/09 02:24:43;;;;;;;5.22;3.20;;;;;;;21.40;100.00;100040.53;6246129;28;20120;-79
2021/08/09 02:28:06;;;;;;;6.43;2.85;;;;;;;21.42;100.00;100070.41;6246421;28;20046;-79
2021/08/09 02:31:10;;;;;;;5.45;3.13;;;;;;;21.44;100.00;100060.47;6246251;28;20047;-79
2021/08/09 02:34:13;;;;;;;6.00;2.70;;;;;;;21.42;100.00;100039.41;6247557;28;20045;-79
2021/08/09 02:37:14;;;;;;;5.90;2.40;;;;;;;21.43;100.00;100040.22;6247267;28;20065;-79
2021/08/09 02:40:17;;;;;;;6.67;2.93;;;;;;;21.41;100.00;100034.22;6246242;28;20049;-80
2021/08/09 02:43:19;;;;;;;6.07;2.72;;;;;;;21.31;100.00;100037.88;6245801;28;20044;-80
2021/08/09 02:46:20;;;;;;;5.68;2.50;;;;;;;21.27;100.00;100055.09;6246133;28;20041;-79
2021/08/09 02:49:21;;;;;;;8.88;2.78;;;;;;;21.28;100.00;100058.59;6246884;28;20475;-80
2021/08/09 02:52:22;;;;;;;7.23;2.87;;;;;;;21.21;100.00;100076.13;6229327;28;20136;-79
2021/08/09 02:55:25;;;;;;;6.78;2.90;;;;;;;21.19;100.00;100072.81;6246101;28;20044;-79
2021/08/09 02:58:26;;;;;;;5.63;2.58;;;;;;;21.05;100.00;100067.16;6245424;28;20087;-79
2021/08/09 03:01:29;;;;;;;6.13;2.90;;;;;;;21.05;100.00;100066.34;6245038;28;20045;-79
2021/08/09 03:04:31;;;;;;;6.25;2.72;;;;;;;20.98;100.00;100057.34;6246463;28;20094;-79
2021/08/09 03:07:35;;;;;;;6.30;2.70;;;;;;;20.97;100.00;100056.53;6212595;28;20500;-79
2021/08/09 03:10:36;;;;;;;4.15;2.70;;;;;;;20.96;100.00;100070.78;6228909;28;20253;-79
2021/08/09 03:13:36;;;;;;;4.27;2.27;;;;;;;20.93;100.00;100047.22;6212690;28;20060;-79
2021/08/09 03:16:37;;;;;;;6.30;2.67;;;;;;;20.89;100.00;100062.63;6229103;28;20045;-79
2021/08/09 03:19:38;;;;;;;4.30;2.67;;;;;;;20.95;100.00;100071.75;6228999;28;20041;-79
2021/08/09 03:22:38;;;;;;;8.10;2.80;;;;;;;20.99;100.00;100081.06;6245017;28;20049;-79
2021/08/09 03:25:39;;;;;;;6.93;2.83;;;;;;;20.95;100.00;100086.84;6244940;28;20065;-80
2021/08/09 03:28:40;;;;;;;6.23;2.90;;;;;;;20.95;100.00;100092.16;6228607;28;20041;-79
2021/08/09 03:31:41;;;;;;;4.13;2.50;;;;;;;20.84;100.00;100093.28;6244827;28;20033;-79
2021/08/09 03:34:41;;;;;;;6.70;2.70;;;;;;;20.96;100.00;100089.34;6245014;28;20057;-80
2021/08/09 03:37:42;;;;;;;6.03;2.50;;;;;;;20.94;100.00;100093.97;6228508;28;20048;-79
2021/08/09 03:40:43;;;;;;;5.43;2.60;;;;;;;20.90;100.00;100100.59;6244720;28;20053;-79
2021/08/09 03:43:43;;;;;;;4.13;2.67;;;;;;;20.75;100.00;100097.69;6228187;28;20052;-79
2021/08/09 03:46:44;;;;;;;7.00;2.60;;;;;;;20.69;100.00;100103.63;6228352;28;20116;-80
2021/08/09 03:49:45;;;;;;;4.13;2.80;;;;;;;20.60;100.00;100113.34;6228259;28;20552;-79
2021/08/09 03:52:47;;;;;;;4.73;3.07;;;;;;;20.53;100.00;100112.31;6228268;28;20065;-79
2021/08/09 03:55:48;;;;;;;5.03;2.70;;;;;;;20.40;100.00;100125.94;6244510;28;20125;-79
2021/08/09 03:58:49;;;;;;;5.20;2.90;;;;;;;20.44;100.00;100134.44;6228116;28;20045;-79
2021/08/09 04:01:49;;;;;;;5.10;3.00;;;;;;;20.49;100.00;100146.22;6244525;28;20124;-79
2021/08/09 04:04:50;;;;;;;5.43;2.53;;;;;;;20.57;100.00;100150.75;6211952;28;20168;-79
2021/08/09 04:07:51;;;;;;;7.10;3.03;;;;;;;20.58;100.00;100151.59;6227937;28;20050;-79
2021/08/09 04:10:51;;;;;;;6.77;2.60;;;;;;;20.56;100.00;100149.09;6228025;28;20095;-79
2021/08/09 04:13:52;;;;;;;4.57;2.97;;;;;;;20.58;100.00;100156.88;6247805;28;20045;-79
2021/08/09 04:16:53;;;;;;;4.60;2.70;;;;;;;20.58;100.00;100157.75;6233062;28;20124;-79
2021/08/09 04:19:54;;;;;;;4.30;2.50;;;;;;;20.53;100.00;100165.31;6233122;28;20374;-79
2021/08/09 04:22:54;;;;;;;5.50;2.87;;;;;;;20.61;100.00;100180.44;6249328;28;20087;-79
2021/08/09 04:25:55;;;;;;;4.33;3.00;;;;;;;20.71;100.00;100187.34;6233224;28;20041;-79
2021/08/09 04:28:56;;;;;;;6.37;2.80;;;;;;;20.78;100.00;100184.06;6218321;28;20053;-79
2021/08/09 04:31:56;;;;;;;5.87;2.77;;;;;;;20.82;100.00;100201.31;6249677;28;20045;-80
2021/08/09 04:34:57;;;;;;;7.63;3.17;;;;;;;20.77;100.00;100199.13;6248997;28;20390;-80
2021/08/09 04:37:58;;;;;;;4.80;3.40;;;;;;;20.79;100.00;100197.13;6232471;28;20037;-80
2021/08/09 04:40:59;;;;;;;4.07;2.80;;;;;;;20.90;100.00;100190.75;6216249;28;20064;-79
2021/08/09 04:43:59;;;;;;;7.37;3.10;;;;;;;20.96;100.00;100197.22;6248598;28;20073;-80
2021/08/09 04:47:00;;;;;;;9.73;2.97;;;;;;;20.88;100.00;100206.00;6215951;28;20048;-79
2021/08/09 04:50:01;;;;;;;7.70;3.30;;;;;;;20.89;100.00;100212.94;6248673;28;20048;-80
2021/08/09 04:53:02;;;;;;;7.87;3.00;;;;;;;20.85;100.00;100216.91;6249560;28;20041;-79
2021/08/09 04:56:03;;;;;;;3.38;2.72;;;;;;;20.89;100.00;100216.44;6215882;28;20051;-80
2021/08/09 04:59:04;;;;;;;3.87;2.57;;;;;;;20.85;100.00;100216.91;6248403;28;20041;-80
2021/08/09 05:02:04;;;;;;;4.20;2.70;;;;;;;20.87;100.00;100212.28;6215299;28;20041;-80
2021/08/09 05:05:05;;;;;;;5.47;3.40;;;;;;;20.86;100.00;100227.38;6248178;28;20443;-80
2021/08/09 05:08:06;;;;;;;4.53;2.95;;;;;;;20.81;100.00;100226.97;6245621;28;20099;-80
2021/08/09 05:11:07;;;;;;;5.03;3.23;;;;;;;20.87;100.00;100231.66;6230918;28;20041;-80
2021/08/09 05:14:08;;;;;;;14.93;3.37;;;;;;;20.78;100.00;100231.78;6247434;28;20049;-80
2021/08/09 05:17:09;;;;;;;10.67;3.73;;;;;;;20.75;100.00;100234.75;6231060;28;20049;-78
2021/08/09 05:20:10;;;;;;;7.03;3.37;;;;;;;20.67;100.00;100222.25;6231561;28;20038;-79
2021/08/09 05:23:11;;;;;;;4.15;3.17;;;;;;;20.73;100.00;100238.38;6247300;28;20095;-80
2021/08/09 05:26:12;;;;;;;4.15;3.05;;;;;;;20.71;100.00;100229.75;6231208;28;20727;-80
2021/08/09 05:29:13;;;;;;;4.60;3.10;;;;;;;20.75;100.00;100234.75;6231281;28;20045;-79
2021/08/09 05:32:14;;;;;;;5.27;3.23;;;;;;;20.77;100.00;100238.06;6216481;28;20049;-80
2021/08/09 05:35:15;;;;;;;5.40;3.20;;;;;;;20.76;100.00;100249.66;6247919;28;20041;-79
2021/08/09 05:38:15;;;;;;;4.30;3.00;;;;;;;20.81;100.00;100245.53;6231398;28;20045;-80
2021/08/09 05:41:16;;;;;;;3.77;3.23;;;;;;;20.91;100.00;100248.09;6196274;28;20453;-80
2021/08/09 05:44:17;;;;;;;6.33;2.97;;;;;;;20.98;100.00;100253.63;6230520;28;20415;-80
2021/08/09 05:47:18;;;;;;;6.37;2.80;;;;;;;20.98;100.00;100257.13;6198277;28;20136;-81
2021/08/09 05:50:19;;;;;;;4.23;2.90;;;;;;;20.96;100.00;100260.88;6231217;28;20741;-78
2021/08/09 05:53:20;;;;;;;3.95;2.63;;;;;;;20.95;100.00;100261.91;6230504;28;20049;-79
2021/08/09 05:56:21;;;;;;;4.20;2.80;;;;;;;21.02;100.00;100268.22;6246978;28;20068;-80
2021/08/09 05:59:22;;;;;;;6.00;3.22;;;;;;;21.05;100.00;100257.31;6246974;28;20072;-79
2021/08/09 06:02:23;;;;;;;4.67;2.37;;;;;;;21.00;100.00;100264.91;6214117;28;20476;-79
2021/08/09 06:05:23;;;;;;;5.57;2.57;;;;;;;20.99;100.00;100265.91;6246804;28;20046;-79
2021/08/09 06:08:24;;;;;;;6.90;2.90;;;;;;;21.05;100.00;100258.16;6246619;28;20080;-79
2021/08/09 06:11:26;;;;;;;6.07;3.37;;;;;;;21.01;100.00;100254.13;6245845;28;20098;-78
2021/08/09 06:14:26;;;;;;;;;;;;;;;21.08;100.00;100257.81;6246981;28;20053;-78
2021/08/09 06:17:27;;;;;;;5.50;3.00;;;;;;;21.00;100.00;100257.78;6229879;28;19921;-78
2021/08/09 06:20:28;;;;;;;5.63;2.97;;;;;;;21.07;100.00;100266.78;6213595;28;20073;-78
2021/08/09 06:23:29;;;;;;;4.07;2.90;;;;;;;21.20;100.00;100276.13;6246183;28;20049;-77
2021/08/09 06:26:30;;;;;;;4.93;2.73;;;;;;;21.28;100.00;100273.53;6230043;28;20091;-85
2021/08/09 06:29:30;;;;;;;4.10;2.90;;;;;;;21.34;100.00;100276.38;6213656;28;20275;-83
2021/08/09 06:32:31;;;;;;;5.23;3.03;;;;;;;21.24;100.00;100272.19;6246470;28;20053;-86
2021/08/09 06:35:32;;;;;;;4.13;3.17;;;;;;;21.36;100.00;100255.00;6245513;28;20049;-85
2021/08/09 06:38:33;;;;;;;4.73;2.90;;;;;;;21.46;100.00;100260.22;6229689;28;20048;-81
2021/08/09 06:41:34;;;;;;;8.50;2.83;;;;;;;21.49;100.00;100267.84;6245799;28;20037;-85
2021/08/09 06:44:35;;;;;;;5.43;2.75;;;;;;;21.49;100.00;100271.31;6222634;28;20076;-81
2021/08/09 06:47:36;;;;;;;5.40;3.00;;;;;;;21.60;100.00;100270.25;6229828;28;20053;-82
2021/08/09 06:50:40;;;;;;;4.00;2.50;;;;;;;21.65;100.00;100272.41;6233021;28;20041;-84
2021/08/09 06:53:41;;;;;;;5.00;2.70;;;;;;;21.70;100.00;100265.63;6245691;28;20075;-89
2021/08/09 06:56:42;;;;;;;4.97;2.90;;;;;;;21.73;100.00;100272.44;6213521;28;20041;-90
2021/08/09 06:59:42;;;;;;;6.63;2.77;;;;;;;21.80;100.00;100264.66;6229758;28;20045;-81
2021/08/09 07:02:43;;;;;;;3.73;2.37;;;;;;;21.77;100.00;100263.16;6245497;28;20077;-81
2021/08/09 07:05:46;;;;;;;4.30;2.50;;;;;;;21.87;99.96;100258.53;6228825;28;20470;-79
2021/08/09 07:08:48;;;;;;;5.15;2.45;;;;;;;21.87;98.66;100260.38;6229230;28;20072;-79
2021/08/09 07:11:48;;;;;;;4.32;2.45;;;;;;;21.84;100.00;100248.22;6229101;28;20034;-81
2021/08/09 07:14:49;;;;;;;4.37;2.63;;;;;;;21.88;100.00;100254.88;6228416;28;20052;-81
2021/08/09 07:17:50;;;;;;;4.40;2.60;;;;;;;22.00;100.00;100246.63;6205525;28;20053;-81
2021/08/09 07:20:50;;;;;;;8.93;2.57;;;;;;;22.05;98.26;100253.09;6206250;28;20045;-81
2021/08/09 07:23:51;;;;;;;6.43;2.50;;;;;;;22.18;99.35;100249.13;6239030;28;20092;-86
2021/08/09 07:26:52;;;;;;;7.23;2.70;;;;;;;22.26;99.40;100252.66;6231799;28;20060;-81
2021/08/09 07:29:53;;;;;;;4.43;2.67;;;;;;;22.36;96.18;100256.97;6211763;28;20038;-83
2021/08/09 07:32:53;;;;;;;4.37;2.80;;;;;;;22.41;96.64;100254.66;6212932;28;20052;-86
2021/08/09 07:35:54;;;;;;;5.50;2.63;;;;;;;22.53;95.51;100254.16;6228886;28;20491;-79
2021/08/09 07:38:55;;;;;;;6.20;2.40;;;;;;;22.60;93.25;100251.66;6242728;28;20045;-80
2021/08/09 07:41:55;;;;;;;3.57;2.60;;;;;;;22.69;92.51;100263.13;6228279;28;20048;-83
2021/08/09 07:44:57;;;;;;;5.13;2.80;;;;;;;22.69;92.20;100265.78;6222879;28;20084;-82
2021/08/09 07:47:58;;;;;;;6.50;2.92;;;;;;;22.77;89.44;100252.47;6244892;28;20468;-89
2021/08/09 07:50:58;;;;;;;5.20;2.63;;;;;;;22.81;88.81;100261.78;6245214;28;20041;-88
2021/08/09 07:53:59;;;;;;;2.93;2.10;;;;;;;22.82;85.33;100266.13;6229342;28;20068;-88
2021/08/09 07:57:04;;;;;;;3.77;2.60;;;;;;;22.91;88.34;100269.59;6245758;28;20042;-87
2021/08/09 08:00:06;;;;;;;4.57;2.80;;;;;;;22.95;87.14;100276.22;6229562;28;20391;-87
2021/08/09 08:03:07;;;;;;;6.03;2.67;;;;;;;23.00;88.95;100270.41;6228620;28;20120;-89
2021/08/09 08:06:08;;;;;;;3.60;2.60;;;;;;;23.08;85.68;100273.06;6245120;28;20050;-90
2021/08/09 08:09:09;;;;;;;4.00;2.67;;;;;;;23.09;84.45;100274.75;6196549;28;20080;-87
2021/08/09 08:12:09;;;;;;;4.03;2.53;;;;;;;23.19;85.90;100271.91;6244863;28;20076;-87
2021/08/09 08:15:10;;;;;;;4.60;2.50;;;;;;;23.23;81.53;100275.88;6244484;28;20048;-79
2021/08/09 08:18:11;;;;;;;4.05;2.50;;;;;;;23.25;84.08;100280.03;6212062;28;20049;-88
2021/08/09 08:21:12;;;;;;;5.95;2.88;;;;;;;23.35;81.82;100287.84;6220462;28;20049;-82
2021/08/09 08:24:13;;;;;;;7.18;2.65;;;;;;;23.41;81.99;100292.47;6244171;28;20041;-87
2021/08/09 08:27:14;;;;;;;3.83;2.70;;;;;;;23.49;83.21;100288.94;6211692;28;20049;-86
2021/08/09 08:30:16;;;;;;;4.27;2.50;;;;;;;23.53;80.85;100292.91;6211785;28;20587;-89
2021/08/09 08:33:16;;;;;;;;;;;;;;;23.59;83.90;100297.56;6212647;28;20100;-87
2021/08/09 08:36:17;;;;;;;5.70;2.45;;;;;;;23.67;82.36;100297.53;6227331;28;20372;-79
2021/08/09 08:39:18;;;;;;;3.27;2.40;;;;;;;23.71;78.21;100296.16;6225904;28;20048;-86
2021/08/09 08:42:19;;;;;;;4.90;2.50;;;;;;;23.78;79.40;100306.16;6243002;28;20171;-82
2021/08/09 08:45:22;;;;;;;5.65;2.40;;;;;;;23.84;79.49;100308.97;6244303;28;20294;-83
2021/08/09 08:48:28;;;;;;;3.88;2.88;;;;;;;23.91;82.37;100301.13;6245094;28;20552;-80
2021/08/09 08:51:29;;;;;;;5.65;2.28;;;;;;;23.95;79.21;100310.44;6244557;28;20041;-84
2021/08/09 08:54:30;;;;;;;3.45;2.22;;;;;;;24.03;79.40;100306.88;6227415;28;20092;-78
2021/08/09 08:57:31;;;;;;;5.47;2.73;;;;;;;24.04;79.63;100312.03;6242433;28;20041;-81
2021/08/09 09:00:36;;;;;;;3.90;2.60;;;;;;;24.09;80.11;100301.69;6215221;28;20789;-86
2021/08/09 09:03:39;;;;;;;6.47;2.63;;;;;;;24.06;77.87;100291.38;6232484;28;20049;-80
2021/08/09 09:06:42;;;;;;;7.82;2.67;;;;;;;24.17;79.69;100289.31;6232291;28;20137;-83
2021/08/09 09:09:43;;;;;;;5.03;2.78;;;;;;;24.20;80.61;100288.97;6231914;28;20049;-83
2021/08/09 09:12:57;;;;;;;5.77;2.60;;;;;;;24.31;81.06;100300.03;6215508;28;20098;-84
2021/08/09 09:15:58;;;;;;;2.85;2.33;;;;;;;24.33;75.69;100308.69;6233496;28;20481;-83
2021/08/09 09:18:59;;;;;;;4.07;2.50;;;;;;;24.34;75.26;100310.34;6248100;28;20040;-82
2021/08/09 09:22:04;;;;;;;4.13;2.75;;;;;;;24.39;75.80;100309.81;6215383;28;20068;-83
2021/08/09 09:25:05;;;;;;;5.43;2.70;;;;;;;24.46;77.41;100316.13;6247920;28;20086;-82
2021/08/09 09:28:33;;;;;;;4.35;2.65;;;;;;;24.51;76.48;100310.28;6247293;28;20045;-81
2021/08/09 09:31:35;;;;;;;3.90;2.40;;;;;;;24.56;77.98;100301.72;6229709;28;20520;-78
2021/08/09 09:34:48;;;;;;;5.38;2.40;;;;;;;24.67;79.77;100303.97;6230953;28;20124;-81
2021/08/09 09:37:51;;;;;;;10.18;3.60;;;;;;;24.74;77.00;100307.56;6247600;28;20516;-79
2021/08/09 09:41:03;;;;;;;5.63;3.00;;;;;;;24.84;81.06;100310.81;6247464;28;20069;-86
2021/08/09 09:44:04;;;;;;;9.30;2.78;;;;;;;24.80;74.40;100301.53;6248519;28;20464;-79
2021/08/09 09:47:27;;;;;;;8.90;3.10;;;;;;;24.84;79.06;100302.81;6214635;28;20472;-80
2021/08/09 09:50:28;;;;;;;10.25;2.95;;;;;;;24.84;78.61;100308.16;6247281;28;20038;-78
2021/08/09 09:53:29;;;;;;;6.30;2.83;;;;;;;24.85;78.14;100309.84;6248273;28;20049;-80
2021/08/09 09:56:29;;;;;;;11.73;3.40;;;;;;;24.96;80.81;100311.22;6230788;28;20072;-84
2021/08/09 09:59:30;;;;;;;6.22;3.33;;;;;;;24.89;75.46;100311.13;6230803;28;20039;-81
2021/08/09 10:02:31;;;;;;;7.03;3.00;;;;;;;24.99;77.31;100313.50;6212791;28;20080;-82
2021/08/09 10:05:37;;;;;;;6.47;3.20;;;;;;;25.06;76.03;100303.78;6241952;28;20053;-81
2021/08/09 10:08:43;;;;;;;7.30;2.90;;;;;;;25.15;75.52;100307.19;6244475;28;20480;-80
2021/08/09 10:11:44;;;;;;;4.93;3.00;;;;;;;25.22;74.30;100307.31;6220910;28;20042;-79
2021/08/09 10:14:46;;;;;;;7.03;3.00;;;;;;;25.37;78.96;100304.66;6205803;28;20048;-80
2021/08/09 10:17:48;;;;;;;6.40;3.13;;;;;;;25.40;76.64;100305.13;6205610;28;20038;-82
2021/08/09 10:20:51;;;;;;;10.77;3.35;;;;;;;25.48;77.11;100306.88;6205914;28;20064;-83
2021/08/09 10:23:52;;;;;;;6.82;3.00;;;;;;;25.50;73.96;100312.88;6221808;28;20129;-82
2021/08/09 10:26:52;;;;;;;4.53;2.53;;;;;;;25.51;73.71;100307.34;6189441;28;20069;-79
2021/08/09 10:29:59;;;;;;;4.73;2.70;;;;;;;25.57;72.44;100303.06;6198155;28;20275;-81
2021/08/09 10:33:01;;;;;;;4.57;2.53;;;;;;;25.63;71.53;100305.00;6245711;28;20109;-77
2021/08/09 10:36:02;;;;;;;13.48;3.05;;;;;;;25.67;75.41;100305.47;6246179;28;20046;-79
2021/08/09 10:39:03;;;;;;;4.97;2.30;;;;;;;25.73;75.52;100308.22;6230356;28;20388;-78
2021/08/09 10:42:03;;;;;;;5.85;3.03;;;;;;;25.83;72.91;100304.44;6229628;28;20120;-82
2021/08/09 10:45:11;;;;;;;6.20;3.05;;;;;;;26.00;70.58;100311.25;6213191;28;20049;-82
2021/08/09 10:48:13;;;;;;;6.28;2.70;;;;;;;26.04;70.72;100309.84;6245978;28;20041;-81
2021/08/09 10:51:14;;;;;;;5.95;2.78;;;;;;;26.11;70.35;100318.78;6231648;28;20048;-81
2021/08/09 10:54:36;;;;;;;5.32;2.60;;;;;;;26.20;68.41;100324.03;6225282;28;20045;-82
2021/08/09 10:57:43;;;;;;;4.15;2.40;;;;;;;26.13;68.24;100326.63;6246129;28;20037;-82
2021/08/09 11:00:43;;;;;;;4.07;2.60;;;;;;;26.24;67.26;100323.44;6245735;28;20037;-82
2021/08/09 11:04:00;;;;;;;4.00;2.60;;;;;;;26.26;65.83;100324.09;6244608;28;20041;-83
2021/08/09 11:07:16;;;;;;;4.18;2.60;;;;;;;26.35;63.49;100324.78;6245252;28;20408;-83
2021/08/09 11:10:54;;;;;;;4.38;2.55;;;;;;;26.44;67.74;100330.84;6245274;28;20069;-81
2021/08/09 11:13:57;;;;;;;4.85;2.67;;;;;;;26.59;65.04;100333.50;6245465;28;20049;-80
2021/08/09 11:17:02;;;;;;;7.53;2.40;;;;;;;26.77;67.60;100330.34;6245178;28;20069;-81
2021/08/09 11:20:17;;;;;;;6.03;2.65;;;;;;;26.98;67.38;100332.19;6245188;28;20045;-80
2021/08/09 11:23:18;;;;;;;6.40;2.65;;;;;;;27.02;62.73;100317.38;6246215;28;20037;-80
2021/08/09 11:26:25;;;;;;;4.00;2.30;;;;;;;27.30;63.98;100315.56;6246018;28;20124;-85
2021/08/09 11:29:26;;;;;;;5.63;2.63;;;;;;;27.47;56.44;100316.06;6245175;28;20377;-82
2021/08/09 11:32:42;;;;;;;3.72;2.20;;;;;;;27.69;61.74;100315.94;6223488;28;20046;-83
2021/08/09 11:35:44;;;;;;;13.13;2.45;;;;;;;28.01;61.53;100319.81;6225250;28;20049;-83
2021/08/09 11:38:53;;;;;;;3.97;2.33;;;;;;;28.76;56.21;100325.13;6221968;28;20042;-80
2021/08/09 11:41:54;;;;;;;4.38;2.33;;;;;;;30.73;50.27;100322.16;6221090;28;20041;-81
2021/08/09 11:44:55;;;;;;;2.88;2.20;;;;;;;33.00;42.47;100317.47;6205119;28;20121;-82
2021/08/09 11:47:56;;;;;;;5.90;2.30;;;;;;;35.09;38.10;100319.00;6188730;28;20038;-82
2021/08/09 11:50:58;;;;;;;;;;;;;;;36.80;36.12;100318.72;6205148;28;20088;-82
2021/08/09 11:53:59;;;;;;;4.30;2.00;;;;;;;37.19;33.75;100318.44;6221773;28;19926;-80
2021/08/09 11:57:00;;;;;;;4.93;2.13;;;;;;;37.07;33.43;100321.31;6221580;28;20045;-84
2021/08/09 12:00:01;;;;;;;3.22;1.92;;;;;;;37.50;32.50;100316.66;6187903;28;20042;-80
2021/08/09 12:03:09;;;;;;;1.88;1.70;;;;;;;38.99;28.47;100311.41;6203836;28;20042;-81
2021/08/09 12:06:21;;;;;;;2.75;1.77;;;;;;;39.56;28.09;100313.97;6220052;28;20440;-79
2021/08/09 12:09:36;;;;;;;3.00;2.03;;;;;;;40.04;27.32;100323.25;6204843;28;20046;-82
2021/08/09 12:12:37;;;;;;;3.35;1.73;;;;;;;40.18;27.49;100311.72;6235915;28;20056;-74
2021/08/09 12:15:38;;;;;;;3.78;1.67;;;;;;;40.29;27.71;100319.53;6245449;28;20037;-83
2021/08/09 12:18:40;;;;;;;4.15;1.80;;;;;;;40.55;27.34;100319.34;6211834;28;20102;-79
2021/08/09 12:21:42;;;;;;;2.42;1.70;;;;;;;40.88;26.75;100316.88;6244775;28;20030;-79
2021/08/09 12:25:01;;;;;;;6.72;1.73;;;;;;;41.41;25.34;100322.28;6244751;28;20044;-79
2021/08/09 12:28:04;;;;;;;3.00;1.80;;;;;;;41.76;24.59;100317.47;6244598;28;20127;-78
2021/08/09 12:31:05;;;;;;;3.83;1.80;;;;;;;40.47;27.11;100318.03;6244330;28;20083;-78
2021/08/09 12:34:11;;;;;;;3.33;1.90;;;;;;;40.29;26.82;100318.72;6229978;28;20050;-79
2021/08/09 12:37:11;;;;;;;1.65;1.55;;;;;;;40.09;27.25;100317.78;6249295;28;20128;-78
2021/08/09 12:40:15;;;;;;;4.00;2.10;;;;;;;38.12;29.37;100319.59;6218936;28;20048;-82
2021/08/09 12:43:19;;;;;;;2.55;2.00;;;;;;;37.46;29.67;100318.28;6249821;28;20096;-77
2021/08/09 12:46:20;;;;;;;3.67;1.98;;;;;;;35.31;35.04;100313.59;6232885;28;20049;-81
2021/08/09 12:49:29;;;;;;;2.72;1.92;;;;;;;34.58;37.39;100310.88;6233095;28;20052;-79
2021/08/09 12:52:30;;;;;;;3.67;2.13;;;;;;;33.21;39.56;100313.34;6216234;28;20055;-76
2021/08/09 12:55:31;;;;;;;7.40;2.13;;;;;;;33.23;41.00;100313.94;6232240;28;20045;-77
2021/08/09 12:58:32;;;;;;;2.90;2.15;;;;;;;32.72;41.85;100310.88;6248539;28;20464;-79
2021/08/09 13:01:33;;;;;;;3.50;2.40;;;;;;;32.75;41.33;100314.19;6231950;28;20507;-80
2021/08/09 13:04:34;;;;;;;5.22;1.98;;;;;;;32.01;41.61;100317.13;6215619;28;20090;-82
2021/08/09 13:07:35;;;;;;;2.88;2.05;;;;;;;32.07;41.55;100305.41;6248073;28;20054;-80
2021/08/09 13:10:35;;;;;;;3.15;1.70;;;;;;;31.78;42.05;100307.03;6247711;28;20037;-81
2021/08/09 13:13:36;;;;;;;3.40;2.35;;;;;;;31.59;43.24;100308.91;6231120;28;20041;-83
2021/08/09 13:16:37;;;;;;;3.90;2.20;;;;;;;31.20;45.29;100309.13;6231707;28;20042;-81
2021/08/09 13:19:38;;;;;;;9.38;2.22;;;;;;;31.60;43.58;100308.69;6215346;28;20088;-83
2021/08/09 13:22:38;;;;;;;5.55;2.28;;;;;;;31.15;43.94;100311.63;6247514;28;20049;-87
2021/08/09 13:25:39;;;;;;;;;;;;;;;31.39;43.91;100315.34;6218362;28;20272;-82
2021/08/09 13:28:40;;;;;;;8.13;2.30;;;;;;;31.24;45.76;100310.31;6249250;28;19921;-81
2021/08/09 13:31:41;;;;;;;;;;;;;;;31.03;45.23;100308.03;6216237;28;20451;-82
2021/08/09 13:34:42;;;;;;;3.27;2.10;;;;;;;30.82;45.82;100303.84;6247548;28;19921;-82
2021/08/09 13:37:42;;;;;;;;;;;;;;;30.83;44.77;100303.63;6231423;28;20488;-82
2021/08/09 13:40:43;;;;;;;5.13;2.17;;;;;;;30.74;46.56;100304.94;6230861;28;20375;-82
2021/08/09 13:43:44;;;;;;;;;;;;;;;30.65;47.41;100306.28;6231181;28;20484;-82
2021/08/09 13:46:44;;;;;;;3.53;2.53;;;;;;;30.66;46.40;100298.00;6222407;28;19922;-81
2021/08/09 13:49:45;;;;;;;;;;;;;;;30.68;44.87;100303.97;6223505;28;20478;-80
2021/08/09 13:52:46;;;;;;;3.57;2.13;;;;;;;30.45;46.68;100307.25;6222847;28;20375;-80
2021/08/09 13:55:46;;;;;;;;;;;;;;;30.35;47.71;100304.19;6206910;28;20140;-79
2021/08/09 13:58:47;;;;;;;2.83;1.90;;;;;;;30.38;48.85;100306.47;6223143;28;19928;-79
2021/08/09 14:01:47;;;;;;;3.55;2.25;;;;;;;30.26;46.31;100309.00;6230802;28;20121;-83
2021/08/09 14:04:48;;;;;;;;;;;;;;;30.15;46.46;100306.19;6249730;28;20044;-86
2021/08/09 14:07:49;;;;;;;4.30;2.17;;;;;;;30.07;46.71;100302.72;6247573;28;19964;-79
2021/08/09 14:10:49;;;;;;;;;;;;;;;30.08;46.10;100303.53;6247309;28;20128;-79